الصفحة الرئيسية
METAR-TAF:

METAR-TAF

مطار :

مطار الكويت الدولي

مدينة الكويت, الكويت

دائرة عرض: 29-13N, خط طول: 047-59E, ارتفاع: 55 متر

مراقبة الطقس الحالي

تاريخ ووقت الإصدار 20 دقيقة قبل الساعة 17:00UTC
ريح 8 عقدة من الشمال الغربي
درجة الحرارة 43°درجة مئوية
الرطوبة 9%
ضغط 993 hPa
الرؤية 10 كم أو أكثر
الغيوم لا تقل 1500 م ولا وجود لمزنة ركامية السحاب الأسود

METAR: OKBK 041700Z 32008KT CAVOK 43/04 Q0993 NOSIG

زمن: 20:20 (17:20 UTC)

توقعات

تاريخ ووقت الإصدار 6ساعات و 35 دقيقة قبل الساعة 10:45UTC
التوقعات صالحة من04 الساعة 12 UTC إلى 05 الساعة 18 UTC
ريح 8 عقدة من الشمال/الشمال الغربي تتزايد حتى 18 عقدة
الرؤية: 7000 متر

TAF: OKBK 041045Z 0412/0518 34008G18KT 7000 NSC

أرصاد الطقس والتوقعات من أكثر من 4000 مطار (تقارير الطقس للمطار METAR والتنبؤ بالطقس بالمطارTAF).

المحطات المتاحة هي النقط الصفراء والحمراء على الخريطة.

حرك المؤشر فوق النقطة لمعرفة اسم المحطة.

ثم انقر لمعرفة أرصاد وتوقعات الطقس.

لتغيير الخارطة: اضغط على الأزرار الخضراء مع رمز الصليب الأسود للتكبير. على الزر الأخضر مع شرطة للتصغير، أو على الأسهم الخضراء للخرائط المجاورة.


METAR-TAF: